createdAt,value
2019-03-30T00:00:53.812Z,34.15
2019-03-30T00:02:57.357Z,31.55
2019-03-30T00:05:00.816Z,32.70
2019-03-30T00:07:04.384Z,34.27
2019-03-30T00:09:08.972Z,37.15
2019-03-30T00:11:12.508Z,37.17
2019-03-30T00:13:16.337Z,35.78
2019-03-30T00:15:19.796Z,34.15
2019-03-30T00:17:23.538Z,38.60
2019-03-30T00:19:34.740Z,54.88
2019-03-30T00:21:32.273Z,49.15
2019-03-30T00:23:35.840Z,45.05
2019-03-30T00:25:40.346Z,42.20
2019-03-30T00:27:43.885Z,47.48
2019-03-30T00:29:47.424Z,50.55
2019-03-30T00:31:51.177Z,51.02
2019-03-30T00:33:54.708Z,45.55
2019-03-30T00:35:58.346Z,39.25
2019-03-30T00:38:01.885Z,38.88
2019-03-30T00:40:07.104Z,38.20
2019-03-30T00:42:10.748Z,46.00
2019-03-30T00:44:14.382Z,51.30
2019-03-30T00:46:18.253Z,56.92
2019-03-30T00:48:21.740Z,56.95
2019-03-30T00:50:25.277Z,53.35
2019-03-30T00:52:28.743Z,56.60
2019-03-30T00:54:32.311Z,56.05
2019-03-30T00:56:36.248Z,52.43
2019-03-30T00:58:39.967Z,51.95
2019-03-30T01:00:43.504Z,47.55
2019-03-30T01:02:47.186Z,48.28
2019-03-30T01:04:50.813Z,45.67
2019-03-30T01:06:54.276Z,45.35
2019-03-30T01:08:57.919Z,46.88
2019-03-30T01:11:01.552Z,47.08
2019-03-30T01:13:05.308Z,57.17
2019-03-30T01:15:10.001Z,64.00
2019-03-30T01:17:13.804Z,67.70
2019-03-30T01:19:17.337Z,69.20
2019-03-30T01:21:20.908Z,72.78
2019-03-30T01:23:24.800Z,76.65
2019-03-30T01:25:28.618Z,76.97
2019-03-30T01:27:32.139Z,71.02
2019-03-30T01:29:35.756Z,62.55
2019-03-30T01:31:40.008Z,59.93
2019-03-30T01:33:43.577Z,56.95
2019-03-30T01:35:47.313Z,58.10
2019-03-30T01:37:50.926Z,56.02
2019-03-30T01:39:54.395Z,55.92
2019-03-30T01:41:57.932Z,56.68
2019-03-30T01:44:02.284Z,57.23
2019-03-30T01:46:05.784Z,56.42
2019-03-30T01:48:09.394Z,55.05
2019-03-30T01:50:17.646Z,57.33
2019-03-30T01:52:19.057Z,54.75
2019-03-30T01:54:22.882Z,49.60
2019-03-30T01:56:26.344Z,50.43
2019-03-30T01:58:29.850Z,47.58
2019-03-30T02:00:33.312Z,47.23
2019-03-30T02:02:37.000Z,49.93
2019-03-30T02:04:41.467Z,47.50
2019-03-30T02:06:45.099Z,55.52
2019-03-30T02:08:48.805Z,56.58
2019-03-30T02:10:52.600Z,49.98
2019-03-30T02:12:56.400Z,49.88
2019-03-30T02:14:59.902Z,48.70
2019-03-30T02:17:04.192Z,44.67
2019-03-30T02:19:07.832Z,49.45
2019-03-30T02:21:11.900Z,46.70
2019-03-30T02:23:15.464Z,41.65
2019-03-30T02:25:18.932Z,41.23
2019-03-30T02:27:22.480Z,40.55
2019-03-30T02:29:25.963Z,40.63
2019-03-30T02:31:29.588Z,41.05
2019-03-30T02:33:33.370Z,43.17
2019-03-30T02:35:37.098Z,44.33
2019-03-30T02:37:40.941Z,42.10
2019-03-30T02:39:44.410Z,48.42
2019-03-30T02:41:48.314Z,51.45
2019-03-30T02:43:52.078Z,48.78
2019-03-30T02:45:55.978Z,50.48
2019-03-30T02:47:59.615Z,45.73
2019-03-30T02:50:03.784Z,48.08
2019-03-30T02:52:07.289Z,47.62
2019-03-30T02:54:10.829Z,51.65
2019-03-30T02:56:14.428Z,53.15
2019-03-30T02:58:18.169Z,49.85
2019-03-30T03:00:22.662Z,50.38
2019-03-30T03:02:26.192Z,52.90
2019-03-30T03:04:30.090Z,53.60
2019-03-30T03:06:33.629Z,53.98
2019-03-30T03:08:37.208Z,54.73
2019-03-30T03:10:40.682Z,48.05
2019-03-30T03:12:44.225Z,47.45
2019-03-30T03:14:47.817Z,45.40
2019-03-30T03:16:51.325Z,49.00
2019-03-30T03:18:55.283Z,50.38
2019-03-30T03:21:07.415Z,47.53
2019-03-30T03:23:04.155Z,47.80
2019-03-30T03:25:07.999Z,50.58
2019-03-30T03:27:11.917Z,50.80
2019-03-30T03:29:15.386Z,56.37
2019-03-30T03:31:19.022Z,57.38
2019-03-30T03:33:22.697Z,51.88
2019-03-30T03:35:27.133Z,63.15
2019-03-30T03:37:44.502Z,70.30
2019-03-30T03:39:36.494Z,67.75
2019-03-30T03:41:40.212Z,57.55
2019-03-30T03:43:44.185Z,52.55
2019-03-30T03:45:47.793Z,55.10
2019-03-30T03:47:51.606Z,52.73
2019-03-30T03:49:55.516Z,49.88
2019-03-30T03:51:59.897Z,55.45
2019-03-30T03:54:03.987Z,54.53
2019-03-30T03:56:07.997Z,55.33
2019-03-30T03:58:12.065Z,54.45
2019-03-30T04:00:15.552Z,56.75
2019-03-30T04:02:20.766Z,79.90
2019-03-30T04:04:27.483Z,65.37
2019-03-30T04:06:32.609Z,60.08
2019-03-30T04:08:36.389Z,63.90
2019-03-30T04:10:41.572Z,59.67
2019-03-30T04:12:47.454Z,62.17
2019-03-30T04:14:52.228Z,96.25
2019-03-30T04:16:56.198Z,51.98
2019-03-30T04:18:59.841Z,43.80
2019-03-30T04:21:03.377Z,45.70
2019-03-30T04:23:06.917Z,48.63
2019-03-30T04:25:11.161Z,43.70
2019-03-30T04:27:15.061Z,41.88
2019-03-30T04:29:18.533Z,40.85
2019-03-30T04:31:22.117Z,38.33
2019-03-30T04:33:25.907Z,40.33
2019-03-30T04:35:29.459Z,42.70
2019-03-30T04:37:33.106Z,44.42
2019-03-30T04:39:36.649Z,45.00
2019-03-30T04:41:40.192Z,48.65
2019-03-30T04:43:43.665Z,49.63
2019-03-30T04:45:47.204Z,49.23
2019-03-30T04:47:50.709Z,52.30
2019-03-30T04:49:54.252Z,53.48
2019-03-30T04:51:58.238Z,51.85
2019-03-30T04:54:01.872Z,62.17
2019-03-30T04:56:05.328Z,72.32
2019-03-30T04:58:09.473Z,73.05
2019-03-30T05:00:13.572Z,61.65
2019-03-30T05:02:17.041Z,60.55
2019-03-30T05:04:20.620Z,53.40
2019-03-30T05:06:24.159Z,50.78
2019-03-30T05:08:27.960Z,47.67
2019-03-30T05:10:31.612Z,48.83
2019-03-30T05:12:35.084Z,57.53
2019-03-30T05:14:39.445Z,56.60
2019-03-30T05:16:42.904Z,59.85
2019-03-30T05:18:46.449Z,61.20
2019-03-30T05:20:50.144Z,57.38
2019-03-30T05:22:53.934Z,54.13
2019-03-30T05:24:57.391Z,51.08
2019-03-30T05:27:01.114Z,49.40
2019-03-30T05:29:04.613Z,50.10
2019-03-30T05:31:08.081Z,49.95
2019-03-30T05:33:12.191Z,49.77
2019-03-30T05:35:16.533Z,51.37
2019-03-30T05:37:20.249Z,52.27
2019-03-30T05:39:24.069Z,55.48
2019-03-30T05:41:27.533Z,52.53
2019-03-30T05:43:31.861Z,52.03
2019-03-30T05:45:36.527Z,51.92
2019-03-30T05:47:40.074Z,55.40
2019-03-30T05:49:43.924Z,49.58
2019-03-30T05:51:47.472Z,54.85
2019-03-30T05:53:51.168Z,55.17
2019-03-30T05:55:54.976Z,53.90
2019-03-30T05:57:58.441Z,55.50
2019-03-30T06:00:02.381Z,53.28
2019-03-30T06:02:05.920Z,57.75
2019-03-30T06:04:10.670Z,55.60
2019-03-30T06:06:14.124Z,51.10
2019-03-30T06:08:17.661Z,50.95
2019-03-30T06:10:21.336Z,52.78
2019-03-30T06:12:25.121Z,49.60
2019-03-30T06:14:28.921Z,52.27
2019-03-30T06:16:33.103Z,50.78
2019-03-30T06:18:40.701Z,51.00
2019-03-30T06:20:44.245Z,49.48
2019-03-30T06:22:47.847Z,50.70
2019-03-30T06:24:51.389Z,49.95
2019-03-30T06:26:58.721Z,52.73
2019-03-30T06:29:02.600Z,54.77
2019-03-30T06:31:06.500Z,54.20
2019-03-30T06:33:10.304Z,53.25
2019-03-30T06:35:14.176Z,52.40
2019-03-30T06:37:18.036Z,51.15
2019-03-30T06:39:21.749Z,48.02
2019-03-30T06:41:25.617Z,45.63
2019-03-30T06:43:29.112Z,46.23
2019-03-30T06:45:32.656Z,50.55
2019-03-30T06:47:36.508Z,44.53
2019-03-30T06:49:40.051Z,44.90
2019-03-30T06:51:43.632Z,50.05
2019-03-30T06:53:47.508Z,49.15
2019-03-30T06:55:50.964Z,47.58
2019-03-30T06:57:54.781Z,47.60
2019-03-30T06:59:58.632Z,45.65
2019-03-30T07:02:02.096Z,47.55
2019-03-30T07:04:05.619Z,51.50
2019-03-30T07:06:10.746Z,66.65
2019-03-30T07:08:16.589Z,49.90
2019-03-30T07:10:20.192Z,47.00
2019-03-30T07:12:28.002Z,48.02
2019-03-30T07:14:34.376Z,45.15
2019-03-30T07:16:39.070Z,46.10
2019-03-30T07:18:44.701Z,46.55
2019-03-30T07:20:48.825Z,45.17
2019-03-30T07:22:52.356Z,47.73
2019-03-30T07:24:56.138Z,44.45
2019-03-30T07:27:01.253Z,49.93
2019-03-30T07:29:04.860Z,51.70
2019-03-30T07:31:08.653Z,58.38
2019-03-30T07:33:12.222Z,59.03
2019-03-30T07:35:15.757Z,47.73
2019-03-30T07:37:19.228Z,44.05
2019-03-30T07:39:23.146Z,46.13
2019-03-30T07:41:27.050Z,46.73
2019-03-30T07:43:30.634Z,44.15
2019-03-30T07:45:34.164Z,40.23
2019-03-30T07:47:37.909Z,42.15
2019-03-30T07:49:41.824Z,44.25
2019-03-30T07:51:45.365Z,39.08
2019-03-30T07:53:48.915Z,38.63
2019-03-30T07:55:52.458Z,39.50
2019-03-30T07:57:56.034Z,35.30
2019-03-30T07:59:59.546Z,33.90
2019-03-30T08:02:03.188Z,33.45
2019-03-30T08:04:06.666Z,32.45
2019-03-30T08:06:10.277Z,31.05
2019-03-30T08:08:13.822Z,30.82
2019-03-30T08:10:17.849Z,27.30
2019-03-30T08:12:21.625Z,28.45
2019-03-30T08:14:26.065Z,26.30
2019-03-30T08:16:29.786Z,25.72
2019-03-30T08:18:33.372Z,27.30
2019-03-30T08:20:36.909Z,27.07
2019-03-30T08:22:40.743Z,27.22
2019-03-30T08:24:44.281Z,28.20
2019-03-30T08:26:48.271Z,27.82
2019-03-30T08:28:51.923Z,30.40
2019-03-30T08:30:55.460Z,26.33
2019-03-30T08:32:58.997Z,26.10
2019-03-30T08:35:02.803Z,45.58
2019-03-30T08:37:06.394Z,29.15
2019-03-30T08:39:10.265Z,26.75
2019-03-30T08:41:13.868Z,28.65
2019-03-30T08:43:17.593Z,29.65
2019-03-30T08:45:21.136Z,31.27
2019-03-30T08:47:24.745Z,31.00
2019-03-30T08:49:28.300Z,31.55
2019-03-30T08:51:33.025Z,30.80
2019-03-30T08:53:36.493Z,33.42
2019-03-30T08:55:40.354Z,27.52
2019-03-30T08:57:43.900Z,28.77
2019-03-30T08:59:47.749Z,28.07
2019-03-30T09:01:51.857Z,28.20
2019-03-30T09:03:55.513Z,24.50
2019-03-30T09:05:58.985Z,26.37
2019-03-30T09:08:02.530Z,29.30
2019-03-30T09:10:08.848Z,27.75
2019-03-30T09:12:12.312Z,25.85
2019-03-30T09:14:16.110Z,24.95
2019-03-30T09:16:19.652Z,28.42
2019-03-30T09:18:23.122Z,29.77
2019-03-30T09:20:26.732Z,28.15
2019-03-30T09:22:30.597Z,28.27
2019-03-30T09:24:34.925Z,29.72
2019-03-30T09:26:38.392Z,28.00
2019-03-30T09:28:41.961Z,30.02
2019-03-30T09:30:45.832Z,28.10
2019-03-30T09:32:49.720Z,30.23
2019-03-30T09:34:53.252Z,30.72
2019-03-30T09:36:56.760Z,30.30
2019-03-30T09:39:00.301Z,30.00
2019-03-30T09:41:03.836Z,31.73
2019-03-30T09:43:07.705Z,30.17
2019-03-30T09:45:11.590Z,29.63
2019-03-30T09:47:15.234Z,32.53
2019-03-30T09:49:18.873Z,31.57
2019-03-30T09:51:22.448Z,32.55
2019-03-30T09:53:26.157Z,34.10
2019-03-30T09:55:29.938Z,34.98
2019-03-30T09:57:33.584Z,34.78
2019-03-30T09:59:37.132Z,36.68
2019-03-30T10:01:40.602Z,36.48
2019-03-30T10:03:44.503Z,36.10
2019-03-30T10:05:48.116Z,40.00
2019-03-30T10:07:51.657Z,39.90
2019-03-30T10:09:55.488Z,39.90
2019-03-30T10:11:59.298Z,38.15
2019-03-30T10:14:02.840Z,40.30
2019-03-30T10:16:06.313Z,40.67
2019-03-30T10:18:10.741Z,99.40
2019-03-30T10:20:15.194Z,39.88
2019-03-30T10:22:19.021Z,40.55
2019-03-30T10:24:37.107Z,39.42
2019-03-30T10:26:28.577Z,41.28
2019-03-30T10:28:32.481Z,42.67
2019-03-30T10:30:35.944Z,43.48
2019-03-30T10:32:39.404Z,41.35
2019-03-30T10:34:44.301Z,43.63
2019-03-30T10:36:47.800Z,58.23
2019-03-30T10:38:51.606Z,72.27
2019-03-30T10:40:55.990Z,40.80
2019-03-30T10:42:59.628Z,41.02
2019-03-30T10:45:04.360Z,39.67
2019-03-30T10:47:08.178Z,40.15
2019-03-30T10:49:11.749Z,43.58
2019-03-30T10:51:15.306Z,40.48
2019-03-30T10:53:19.721Z,39.70
2019-03-30T10:55:23.520Z,41.55
2019-03-30T10:57:26.988Z,40.52
2019-03-30T10:59:30.978Z,41.60
2019-03-30T11:01:34.953Z,40.40
2019-03-30T11:03:38.864Z,40.35
2019-03-30T11:05:43.762Z,39.75
2019-03-30T11:07:47.597Z,39.42
2019-03-30T11:09:51.136Z,40.67
2019-03-30T11:11:54.600Z,40.80
2019-03-30T11:13:58.152Z,40.88
2019-03-30T11:16:01.980Z,42.03
2019-03-30T11:18:05.441Z,40.52
2019-03-30T11:20:09.510Z,44.10
2019-03-30T11:22:13.056Z,40.30
2019-03-30T11:24:16.884Z,38.83
2019-03-30T11:26:20.417Z,35.60
2019-03-30T11:28:23.888Z,38.55
2019-03-30T11:30:27.885Z,38.05
2019-03-30T11:32:31.512Z,38.17
2019-03-30T11:34:35.309Z,38.02
2019-03-30T11:36:38.849Z,39.40
2019-03-30T11:38:43.709Z,37.75
2019-03-30T11:40:47.605Z,39.63
2019-03-30T11:42:51.413Z,36.90
2019-03-30T11:44:55.718Z,37.38
2019-03-30T11:46:59.425Z,37.08
2019-03-30T11:49:03.462Z,37.70
2019-03-30T11:51:08.040Z,39.40
2019-03-30T11:53:11.857Z,36.68
2019-03-30T11:55:22.172Z,37.03
2019-03-30T11:57:21.300Z,37.48
2019-03-30T11:59:25.104Z,35.90
2019-03-30T12:01:28.579Z,37.53
2019-03-30T12:03:32.324Z,36.40
2019-03-30T12:05:36.144Z,36.48
2019-03-30T12:07:39.613Z,35.55
2019-03-30T12:09:43.160Z,35.55
2019-03-30T12:11:46.624Z,38.00
2019-03-30T12:13:50.167Z,36.48
2019-03-30T12:15:53.640Z,37.98
2019-03-30T12:17:57.176Z,37.28
2019-03-30T12:20:01.046Z,38.85
2019-03-30T12:22:04.888Z,36.00
2019-03-30T12:24:09.994Z,38.02
2019-03-30T12:26:14.408Z,45.08
2019-03-30T12:28:17.944Z,52.55
2019-03-30T12:30:21.841Z,38.78
2019-03-30T12:32:25.415Z,38.90
2019-03-30T12:34:29.844Z,38.60
2019-03-30T12:36:33.421Z,37.93
2019-03-30T12:38:36.963Z,39.38
2019-03-30T12:40:40.954Z,41.73
2019-03-30T12:42:44.881Z,37.73
2019-03-30T12:44:48.426Z,36.10
2019-03-30T12:46:52.759Z,36.65
2019-03-30T12:48:56.601Z,36.25
2019-03-30T12:51:00.136Z,35.85
2019-03-30T12:53:03.909Z,34.53
2019-03-30T12:55:07.657Z,36.25
2019-03-30T12:57:11.479Z,34.98
2019-03-30T12:59:15.013Z,37.40
2019-03-30T13:01:18.874Z,37.60
2019-03-30T13:03:22.452Z,42.88
2019-03-30T13:05:26.067Z,38.60
2019-03-30T13:07:29.979Z,37.08
2019-03-30T13:09:34.911Z,34.90
2019-03-30T13:11:38.932Z,35.10
2019-03-30T13:13:42.714Z,35.40
2019-03-30T13:15:46.614Z,35.58
2019-03-30T13:17:50.516Z,35.08
2019-03-30T13:19:53.996Z,34.18
2019-03-30T13:21:57.471Z,84.30
2019-03-30T13:24:01.225Z,45.23
2019-03-30T13:26:05.094Z,43.75
2019-03-30T13:28:08.697Z,35.78
2019-03-30T13:30:13.260Z,34.58
2019-03-30T13:32:17.140Z,34.30
2019-03-30T13:34:20.728Z,34.78
2019-03-30T13:36:38.052Z,35.98
2019-03-30T13:38:41.977Z,33.83
2019-03-30T13:40:46.580Z,33.08
2019-03-30T13:42:50.485Z,32.98
2019-03-30T13:44:54.773Z,33.28
2019-03-30T13:46:58.341Z,33.83
2019-03-30T13:49:02.305Z,33.00
2019-03-30T13:51:06.178Z,30.32
2019-03-30T13:53:10.009Z,29.42
2019-03-30T13:55:21.448Z,29.50
2019-03-30T13:57:25.026Z,32.42
2019-03-30T13:59:28.624Z,33.75
2019-03-30T14:01:32.603Z,27.45
2019-03-30T14:03:36.141Z,28.87
2019-03-30T14:05:39.688Z,46.77
2019-03-30T14:07:43.328Z,40.00
2019-03-30T14:09:47.162Z,30.68
2019-03-30T14:11:51.092Z,32.30
2019-03-30T14:13:54.565Z,37.13
2019-03-30T14:15:58.105Z,29.35
2019-03-30T14:18:02.093Z,29.82
2019-03-30T14:20:07.574Z,25.17
2019-03-30T14:22:11.177Z,24.07
2019-03-30T14:24:15.396Z,25.43
2019-03-30T14:26:30.633Z,25.90
2019-03-30T14:28:25.020Z,26.90
2019-03-30T14:30:28.488Z,107.30
2019-03-30T14:32:32.062Z,34.70
2019-03-30T14:34:36.473Z,28.90
2019-03-30T14:36:40.208Z,32.00
2019-03-30T14:38:44.001Z,26.80
2019-03-30T14:40:47.524Z,27.02
2019-03-30T14:42:50.992Z,52.58
2019-03-30T14:44:55.349Z,58.98
2019-03-30T14:46:59.266Z,35.10
2019-03-30T14:49:03.222Z,28.25
2019-03-30T14:51:07.128Z,28.05
2019-03-30T14:53:10.721Z,26.40
2019-03-30T14:55:14.240Z,25.08
2019-03-30T14:57:17.981Z,28.90
2019-03-30T14:59:21.828Z,28.30
2019-03-30T15:01:25.488Z,24.15
2019-03-30T15:03:29.397Z,24.10
2019-03-30T15:05:33.106Z,23.12
2019-03-30T15:07:36.573Z,21.62
2019-03-30T15:09:40.145Z,22.42
2019-03-30T15:11:43.884Z,21.97
2019-03-30T15:13:47.544Z,21.57
2019-03-30T15:15:51.904Z,21.33
2019-03-30T15:17:55.386Z,20.77
2019-03-30T15:19:59.205Z,18.15
2019-03-30T15:22:02.871Z,17.25
2019-03-30T15:24:06.400Z,17.23
2019-03-30T15:26:09.868Z,18.40
2019-03-30T15:28:13.590Z,17.98
2019-03-30T15:30:18.875Z,18.52
2019-03-30T15:32:22.672Z,20.43
2019-03-30T15:34:26.414Z,21.85
2019-03-30T15:36:30.496Z,19.75
2019-03-30T15:38:33.964Z,18.32
2019-03-30T15:40:38.742Z,18.10
2019-03-30T15:42:43.217Z,19.15
2019-03-30T15:44:47.135Z,17.57
2019-03-30T15:46:50.606Z,19.60
2019-03-30T15:48:54.513Z,18.35
2019-03-30T15:50:58.053Z,15.78
2019-03-30T15:53:01.602Z,27.87
2019-03-30T15:55:07.830Z,23.75
2019-03-30T15:57:14.385Z,23.67
2019-03-30T15:59:17.097Z,23.95
2019-03-30T16:01:20.632Z,25.55
2019-03-30T16:03:24.405Z,25.70
2019-03-30T16:05:28.412Z,23.30
2019-03-30T16:07:32.073Z,19.37
2019-03-30T16:09:35.646Z,18.52
2019-03-30T16:11:39.184Z,20.95
2019-03-30T16:13:42.740Z,22.27
2019-03-30T16:15:46.204Z,22.58
2019-03-30T16:17:50.511Z,26.23
2019-03-30T16:19:54.048Z,30.05
2019-03-30T16:21:57.513Z,28.95
2019-03-30T16:24:01.150Z,28.75
2019-03-30T16:26:04.845Z,21.75
2019-03-30T16:28:08.554Z,18.35
2019-03-30T16:30:12.786Z,17.65
2019-03-30T16:32:16.324Z,15.45
2019-03-30T16:34:20.080Z,17.20
2019-03-30T16:36:23.545Z,28.70
2019-03-30T16:38:27.088Z,23.83
2019-03-30T16:40:31.109Z,25.17
2019-03-30T16:42:35.009Z,28.95
2019-03-30T16:44:38.617Z,42.67
2019-03-30T16:46:42.357Z,51.23
2019-03-30T16:48:45.909Z,89.80
2019-03-30T16:50:49.916Z,76.87
2019-03-30T16:52:53.744Z,62.80
2019-03-30T16:54:57.516Z,54.23
2019-03-30T16:57:02.113Z,43.80
2019-03-30T16:59:05.939Z,85.95
2019-03-30T17:01:09.579Z,60.00
2019-03-30T17:03:13.941Z,39.38
2019-03-30T17:05:18.297Z,63.23
2019-03-30T17:07:22.140Z,63.52
2019-03-30T17:09:25.693Z,59.33
2019-03-30T17:11:29.482Z,74.62
2019-03-30T17:13:33.354Z,201.95
2019-03-30T17:15:37.281Z,64.97
2019-03-30T17:17:41.089Z,67.50
2019-03-30T17:19:44.568Z,191.12
2019-03-30T17:21:48.381Z,174.53
2019-03-30T17:23:52.185Z,185.80
2019-03-30T17:25:55.659Z,139.95
2019-03-30T17:27:59.510Z,95.87
2019-03-30T17:30:03.496Z,239.02
2019-03-30T17:32:07.152Z,236.30
2019-03-30T17:34:10.892Z,243.17
2019-03-30T17:36:14.359Z,233.95
2019-03-30T17:38:18.193Z,303.37
2019-03-30T17:40:21.837Z,255.98
2019-03-30T17:42:25.595Z,150.95
2019-03-30T17:44:29.138Z,105.78
2019-03-30T17:46:32.820Z,111.85
2019-03-30T17:48:36.363Z,117.08
2019-03-30T17:50:40.772Z,107.65
2019-03-30T17:52:44.628Z,120.85
2019-03-30T17:54:48.532Z,198.02
2019-03-30T17:56:52.789Z,179.40
2019-03-30T17:58:57.236Z,305.70
2019-03-30T18:01:01.171Z,361.55
2019-03-30T18:03:05.092Z,94.87
2019-03-30T18:05:08.878Z,241.20
2019-03-30T18:07:13.806Z,84.58
2019-03-30T18:09:17.504Z,262.10
2019-03-30T18:11:21.588Z,364.57
2019-03-30T18:13:25.493Z,206.60
2019-03-30T18:15:29.256Z,99.52
2019-03-30T18:17:32.809Z,46.68
2019-03-30T18:19:36.342Z,52.50
2019-03-30T18:21:40.773Z,35.63
2019-03-30T18:23:47.425Z,35.70
2019-03-30T18:25:49.894Z,35.70
2019-03-30T18:27:54.265Z,94.17
2019-03-30T18:29:59.729Z,87.80
2019-03-30T18:32:03.640Z,106.07
2019-03-30T18:34:07.286Z,102.02
2019-03-30T18:36:12.463Z,133.97
2019-03-30T18:38:16.526Z,125.60
2019-03-30T18:40:31.237Z,121.13
2019-03-30T18:42:36.065Z,239.80
2019-03-30T18:44:39.873Z,276.48
2019-03-30T18:46:43.737Z,211.62
2019-03-30T18:48:47.391Z,222.22
2019-03-30T18:50:51.711Z,142.18
2019-03-30T18:52:55.406Z,143.60
2019-03-30T18:54:59.314Z,160.30
2019-03-30T18:57:03.262Z,185.45
2019-03-30T18:59:06.897Z,185.97
2019-03-30T19:01:10.660Z,194.25
2019-03-30T19:03:14.566Z,178.00
2019-03-30T19:05:18.993Z,226.98
2019-03-30T19:07:23.309Z,271.60
2019-03-30T19:09:26.840Z,248.30
2019-03-30T19:11:31.009Z,259.27
2019-03-30T19:13:34.563Z,261.52
2019-03-30T19:15:38.106Z,306.10
2019-03-30T19:17:41.903Z,283.52
2019-03-30T19:19:49.942Z,258.02
2019-03-30T19:21:52.345Z,258.20
2019-03-30T19:23:56.213Z,392.18
2019-03-30T19:25:59.871Z,342.45
2019-03-30T19:28:03.752Z,276.75
2019-03-30T19:30:09.734Z,226.98
2019-03-30T19:32:13.529Z,245.95
2019-03-30T19:34:18.129Z,264.12
2019-03-30T19:36:21.935Z,322.85
2019-03-30T19:38:25.776Z,203.30
2019-03-30T19:40:29.428Z,181.70
2019-03-30T19:42:32.890Z,208.35
2019-03-30T19:44:36.508Z,193.55
2019-03-30T19:46:40.002Z,156.32
2019-03-30T19:48:43.855Z,127.07
2019-03-30T19:50:48.497Z,128.07
2019-03-30T19:52:52.295Z,129.60
2019-03-30T19:54:56.124Z,123.47
2019-03-30T19:57:00.088Z,115.65
2019-03-30T19:59:11.159Z,115.80
2019-03-30T20:01:11.596Z,112.45
2019-03-30T20:03:15.618Z,132.50
2019-03-30T20:05:19.497Z,66.50
2019-03-30T20:07:23.103Z,63.58
2019-03-30T20:09:27.015Z,47.67
2019-03-30T20:11:31.452Z,45.45
2019-03-30T20:13:35.223Z,55.10
2019-03-30T20:15:39.153Z,55.35
2019-03-30T20:17:43.028Z,55.65
2019-03-30T20:19:47.542Z,54.27
2019-03-30T20:21:52.972Z,56.58
2019-03-30T20:23:56.792Z,62.10
2019-03-30T20:26:00.401Z,73.07
2019-03-30T20:28:04.086Z,85.28
2019-03-30T20:30:09.445Z,54.13
2019-03-30T20:32:13.332Z,61.18
2019-03-30T20:34:17.234Z,51.02
2019-03-30T20:36:20.768Z,42.98
2019-03-30T20:38:24.630Z,39.80
2019-03-30T20:40:28.430Z,38.83
2019-03-30T20:42:32.261Z,38.05
2019-03-30T20:44:36.353Z,38.15
2019-03-30T20:46:43.533Z,35.33
2019-03-30T20:48:46.381Z,34.63
2019-03-30T20:50:49.889Z,50.10
2019-03-30T20:52:54.297Z,36.85
2019-03-30T20:55:01.681Z,37.95
2019-03-30T20:57:16.164Z,46.30
2019-03-30T20:59:20.089Z,45.88
2019-03-30T21:01:23.688Z,43.60
2019-03-30T21:03:28.996Z,45.88
2019-03-30T21:05:32.932Z,45.30
2019-03-30T21:07:36.549Z,49.50
2019-03-30T21:09:40.515Z,49.85
2019-03-30T21:11:45.033Z,49.13
2019-03-30T21:13:49.433Z,57.30
2019-03-30T21:15:53.645Z,49.95
2019-03-30T21:17:57.196Z,47.60
2019-03-30T21:20:00.957Z,49.53
2019-03-30T21:22:04.846Z,56.23
2019-03-30T21:24:08.490Z,58.48
2019-03-30T21:26:12.853Z,57.05
2019-03-30T21:28:16.510Z,57.95
2019-03-30T21:30:20.452Z,55.33
2019-03-30T21:32:24.283Z,55.90
2019-03-30T21:34:28.717Z,60.15
2019-03-30T21:36:32.605Z,63.83
2019-03-30T21:38:36.073Z,69.25
2019-03-30T21:40:39.614Z,61.60
2019-03-30T21:42:43.500Z,61.80
2019-03-30T21:44:47.608Z,69.77
2019-03-30T21:46:51.113Z,67.12
2019-03-30T21:48:54.832Z,70.55
2019-03-30T21:50:58.615Z,64.72
2019-03-30T21:53:02.145Z,62.33
2019-03-30T21:55:06.985Z,60.80
2019-03-30T21:57:11.334Z,59.23
2019-03-30T21:59:15.028Z,54.45
2019-03-30T22:01:19.372Z,58.90
2019-03-30T22:03:23.694Z,69.58
2019-03-30T22:05:27.382Z,59.98
2019-03-30T22:07:31.400Z,52.60
2019-03-30T22:09:35.416Z,55.30
2019-03-30T22:11:39.824Z,53.98
2019-03-30T22:13:43.912Z,62.10
2019-03-30T22:15:47.481Z,76.75
2019-03-30T22:17:51.341Z,69.12
2019-03-30T22:19:54.801Z,66.30
2019-03-30T22:21:58.713Z,71.37
2019-03-30T22:24:02.617Z,74.20
2019-03-30T22:26:06.074Z,70.62
2019-03-30T22:28:10.041Z,75.08
2019-03-30T22:30:24.776Z,76.55
2019-03-30T22:32:19.360Z,74.07
2019-03-30T22:34:22.832Z,67.20
2019-03-30T22:36:26.373Z,62.65
2019-03-30T22:38:30.262Z,61.40
2019-03-30T22:40:33.880Z,61.92
2019-03-30T22:42:38.174Z,63.25
2019-03-30T22:44:42.028Z,66.07
2019-03-30T22:46:45.904Z,68.20
2019-03-30T22:48:49.756Z,70.80
2019-03-30T22:50:53.296Z,67.35
2019-03-30T22:52:56.813Z,67.70
2019-03-30T22:55:01.169Z,65.90
2019-03-30T22:57:04.721Z,59.38
2019-03-30T22:59:08.253Z,64.22
2019-03-30T23:01:13.440Z,62.50
2019-03-30T23:03:17.198Z,60.03
2019-03-30T23:05:20.733Z,64.30
2019-03-30T23:07:24.196Z,66.22
2019-03-30T23:09:28.604Z,62.75
2019-03-30T23:11:32.452Z,66.62
2019-03-30T23:13:36.058Z,64.97
2019-03-30T23:15:40.005Z,66.60
2019-03-30T23:17:44.342Z,69.58
2019-03-30T23:19:49.041Z,61.50
2019-03-30T23:21:52.871Z,62.90
2019-03-30T23:23:56.673Z,61.40
2019-03-30T23:26:00.320Z,62.27
2019-03-30T23:28:04.050Z,64.03
2019-03-30T23:30:08.568Z,64.22
2019-03-30T23:32:13.393Z,56.50
2019-03-30T23:34:17.716Z,55.83
2019-03-30T23:36:21.258Z,63.17
2019-03-30T23:38:24.800Z,75.65
2019-03-30T23:40:28.707Z,67.27
2019-03-30T23:42:32.245Z,64.12
2019-03-30T23:44:35.712Z,58.38
2019-03-30T23:46:39.232Z,57.53
2019-03-30T23:48:42.768Z,56.18
2019-03-30T23:50:46.513Z,56.40
2019-03-30T23:52:50.492Z,61.77
2019-03-30T23:54:54.402Z,55.85
2019-03-30T23:56:58.252Z,54.20
2019-03-30T23:59:02.788Z,51.53
